Time;durP1;ratioP1;P1;durP2;ratioP2;P2;SDS_P1;SDS_P2;PMS_P1;PMS_P2;Temp;Humidity;BMP_temperature;BMP_pressure;BME280_temperature;BME280_humidity;BME280_pressure;Samples;Min_cycle;Max_cycle;Signal;HPM_P1;HPM_P2
2021/08/12 00:00:55;;;;;;;1.35;0.90;;;;;;;-142.37;100.00;59669.53;5034521;28;20022;-69
2021/08/12 00:03:20;;;;;;;2.20;0.82;;;;;;;-142.37;100.00;59669.53;5034565;28;20041;-68
2021/08/12 00:05:47;;;;;;;1.73;0.80;;;;;;;-142.37;100.00;59669.53;5034553;28;20025;-68
2021/08/12 00:08:14;;;;;;;1.35;0.85;;;;;;;-142.37;100.00;59669.53;5034497;28;20380;-68
2021/08/12 00:10:39;;;;;;;3.17;1.30;;;;;;;-142.37;100.00;59669.53;5033853;28;20140;-69
2021/08/12 00:13:12;;;;;;;1.58;1.02;;;;;;;-142.37;100.00;59669.53;5033438;28;20052;-70
2021/08/12 00:15:38;;;;;;;1.65;1.10;;;;;;;-142.37;100.00;59669.53;5032878;28;20104;-69
2021/08/12 00:18:04;;;;;;;2.08;0.80;;;;;;;-142.37;100.00;59669.53;5033549;28;20017;-68
2021/08/12 00:20:29;;;;;;;1.52;0.70;;;;;;;-142.37;100.00;59669.53;5032957;28;20022;-68
2021/08/12 00:22:55;;;;;;;0.70;0.70;;;;;;;-142.37;100.00;59669.53;5034300;28;20116;-68
2021/08/12 00:25:20;;;;;;;1.40;1.00;;;;;;;-142.37;100.00;59669.53;5033799;28;20037;-67
2021/08/12 00:27:46;;;;;;;2.63;0.95;;;;;;;-142.37;100.00;59669.53;5034037;28;20040;-68
2021/08/12 00:30:12;;;;;;;1.73;1.00;;;;;;;-142.37;100.00;59669.53;5033804;28;20040;-67
2021/08/12 00:32:37;;;;;;;1.23;0.70;;;;;;;-142.37;100.00;59669.53;5034008;28;20025;-67
2021/08/12 00:35:03;;;;;;;1.00;0.85;;;;;;;-142.37;100.00;59669.53;5033993;28;20025;-67
2021/08/12 00:37:28;;;;;;;1.92;0.95;;;;;;;-142.37;100.00;59669.53;5033977;28;20029;-67
2021/08/12 00:39:55;;;;;;;2.80;1.35;;;;;;;-142.37;100.00;59669.53;5033823;28;20033;-68
2021/08/12 00:42:22;;;;;;;2.38;1.27;;;;;;;-142.37;100.00;59669.53;5033844;28;20029;-67
2021/08/12 00:44:47;;;;;;;1.58;0.95;;;;;;;-142.37;100.00;59669.53;5033580;28;20021;-67
2021/08/12 00:47:13;;;;;;;3.58;1.30;;;;;;;-142.37;100.00;59669.53;5033549;28;20032;-67
2021/08/12 00:49:38;;;;;;;1.70;0.70;;;;;;;-142.37;100.00;59669.53;5033527;28;20025;-66
2021/08/12 00:52:06;;;;;;;1.38;1.02;;;;;;;-142.37;100.00;59669.53;5033345;28;20022;-67
2021/08/12 00:54:35;;;;;;;1.20;0.98;;;;;;;-142.37;100.00;59669.53;5033709;28;20075;-67
2021/08/12 00:57:02;;;;;;;1.25;0.95;;;;;;;-142.37;100.00;59669.53;5033506;28;20136;-68
2021/08/12 00:59:39;;;;;;;2.38;0.75;;;;;;;-142.37;100.00;59669.53;5033457;28;20468;-68
2021/08/12 01:02:09;;;;;;;1.35;0.90;;;;;;;-142.37;100.00;59669.53;5033248;28;20026;-68
2021/08/12 01:04:34;;;;;;;1.35;0.80;;;;;;;-142.37;100.00;59669.53;5032777;28;20041;-68
2021/08/12 01:07:13;;;;;;;1.90;1.02;;;;;;;-142.37;100.00;59669.53;5033185;28;20017;-67
2021/08/12 01:10:00;;;;;;;3.17;1.08;;;;;;;-142.37;100.00;59669.53;5033619;28;20447;-68
2021/08/12 01:13:02;;;;;;;1.20;0.90;;;;;;;-142.37;100.00;59669.53;5033054;28;20082;-67
2021/08/12 01:15:38;;;;;;;1.85;1.13;;;;;;;-142.37;100.00;59669.53;5033157;28;20476;-69
2021/08/12 01:18:38;;;;;;;1.67;0.82;;;;;;;-142.37;100.00;59669.53;5033280;28;20096;-68
2021/08/12 01:21:24;;;;;;;1.20;0.77;;;;;;;-142.37;100.00;59669.53;4952934;29;20147;-67
2021/08/12 01:23:50;;;;;;;1.65;1.05;;;;;;;-142.37;100.00;59669.53;4952882;29;20034;-67
2021/08/12 01:26:19;;;;;;;1.00;0.88;;;;;;;-142.37;100.00;59669.53;4953148;29;20490;-67
2021/08/12 01:28:47;;;;;;;2.65;1.02;;;;;;;-142.37;100.00;59669.53;4953215;29;20039;-67
2021/08/12 01:31:43;;;;;;;1.40;0.88;;;;;;;-142.37;100.00;59669.53;4953113;29;20043;-68
2021/08/12 01:34:11;;;;;;;0.93;0.65;;;;;;;-142.37;100.00;59669.53;4952909;29;20074;-68
2021/08/12 01:36:42;;;;;;;0.82;0.52;;;;;;;-142.37;100.00;59669.53;4953207;29;20027;-70
2021/08/12 01:39:11;;;;;;;1.45;0.70;;;;;;;-142.37;100.00;59669.53;4953039;29;20128;-68
2021/08/12 01:41:38;;;;;;;1.50;0.85;;;;;;;-142.37;100.00;59669.53;4953043;29;20028;-68
2021/08/12 01:44:06;;;;;;;1.90;0.80;;;;;;;-142.37;100.00;59669.53;4953242;29;20098;-68
2021/08/12 01:57:12;;;;;;;0.68;0.50;;;;;;;18.94;62.86;101668.94;5089825;27;20615;-64
2021/08/12 01:59:38;;;;;;;1.13;0.80;;;;;;;18.86;61.02;101659.84;5092310;28;20047;-63
2021/08/12 02:02:05;;;;;;;1.35;0.70;;;;;;;18.74;61.65;101666.53;5092240;28;20028;-63
2021/08/12 02:04:32;;;;;;;1.48;0.73;;;;;;;18.61;60.24;101661.41;5090597;28;20074;-62
2021/08/12 02:06:58;;;;;;;0.63;0.63;;;;;;;18.63;61.38;101659.44;5090150;28;20472;-64
2021/08/12 02:09:23;;;;;;;0.90;0.60;;;;;;;18.60;60.45;101665.16;5090722;28;20029;-66
2021/08/12 02:11:49;;;;;;;0.40;0.40;;;;;;;18.61;58.94;101672.31;5090220;28;20020;-64
2021/08/12 02:14:14;;;;;;;0.93;0.68;;;;;;;18.54;59.40;101672.06;5091825;28;20028;-64
2021/08/12 02:16:40;;;;;;;0.57;0.57;;;;;;;18.52;58.95;101667.81;5090471;28;20039;-64
2021/08/12 02:19:06;;;;;;;0.57;0.45;;;;;;;18.34;59.71;101660.44;5090543;28;20051;-65
2021/08/12 02:21:41;;;;;;;0.80;0.80;;;;;;;18.36;59.57;101673.91;5090384;28;20392;-65
2021/08/12 02:24:19;;;;;;;0.57;0.55;;;;;;;18.28;60.29;101671.91;5088934;28;20031;-65
2021/08/12 02:27:08;;;;;;;0.88;0.80;;;;;;;18.32;59.68;101681.53;5090492;28;20035;-65
2021/08/12 02:29:34;;;;;;;1.05;0.85;;;;;;;18.33;60.05;101680.50;5089445;28;20392;-64
2021/08/12 02:32:03;;;;;;;1.00;0.80;;;;;;;18.43;59.94;101674.13;5091224;28;20020;-64
2021/08/12 02:34:29;;;;;;;0.77;0.77;;;;;;;18.31;61.35;101682.53;5088818;28;20028;-63
2021/08/12 02:36:57;;;;;;;0.73;0.60;;;;;;;18.37;60.28;101682.94;5089745;28;20525;-63
2021/08/12 02:39:25;;;;;;;0.90;0.70;;;;;;;18.40;60.73;101679.91;5090291;28;20111;-64
2021/08/12 02:41:53;;;;;;;0.60;0.50;;;;;;;18.38;60.76;101676.47;5089847;28;20055;-64
2021/08/12 02:44:19;;;;;;;0.68;0.60;;;;;;;18.32;60.63;101688.84;5089966;28;20024;-63
2021/08/12 02:46:45;;;;;;;0.63;0.60;;;;;;;18.34;60.51;101687.66;5089620;28;20024;-63
2021/08/12 02:49:13;;;;;;;0.98;0.60;;;;;;;18.33;59.95;101680.50;5089890;28;20120;-64
2021/08/12 02:51:39;;;;;;;0.50;0.50;;;;;;;18.41;60.27;101671.56;5089790;28;20063;-64
2021/08/12 02:54:05;;;;;;;0.60;0.50;;;;;;;18.41;60.25;101670.72;5089617;28;20467;-63
2021/08/12 02:56:33;;;;;;;0.65;0.60;;;;;;;18.39;60.32;101675.47;5085238;28;20032;-63
2021/08/12 02:58:58;;;;;;;1.30;0.60;;;;;;;18.36;60.88;101673.06;5076745;28;20086;-62
2021/08/12 03:01:26;;;;;;;0.63;0.60;;;;;;;18.30;60.38;101672.63;5075103;28;20468;-64
2021/08/12 03:04:19;;;;;;;0.70;0.70;;;;;;;18.44;60.78;101673.13;5074964;28;20128;-63
2021/08/12 03:06:46;;;;;;;1.00;0.88;;;;;;;18.37;60.29;101674.75;5053613;28;20037;-63
2021/08/12 03:09:14;;;;;;;0.75;0.68;;;;;;;18.37;59.89;101674.75;5054059;28;20189;-62
2021/08/12 03:11:40;;;;;;;0.85;0.50;;;;;;;18.33;60.22;101666.91;5054124;28;20032;-63
2021/08/12 03:14:07;;;;;;;0.77;0.70;;;;;;;18.27;60.86;101674.78;5055272;28;20070;-62
2021/08/12 03:16:43;;;;;;;0.80;0.60;;;;;;;18.29;60.22;101679.06;5054101;28;20029;-63
2021/08/12 03:19:18;;;;;;;1.30;0.75;;;;;;;18.30;60.47;101675.34;5054057;28;20061;-64
2021/08/12 03:22:06;;;;;;;0.70;0.50;;;;;;;18.29;61.26;101679.06;5054127;28;20512;-65
2021/08/12 03:24:37;;;;;;;0.60;0.50;;;;;;;18.32;60.00;101667.06;5053704;28;20456;-64
2021/08/12 03:27:03;;;;;;;0.52;0.40;;;;;;;18.32;59.87;101667.91;5053988;28;20524;-65
2021/08/12 03:29:29;;;;;;;0.70;0.68;;;;;;;18.28;60.82;101666.47;5037547;28;20120;-64
2021/08/12 03:32:24;;;;;;;0.70;0.60;;;;;;;18.26;60.69;101671.22;5054040;28;20060;-65
2021/08/12 03:34:58;;;;;;;0.93;0.50;;;;;;;18.27;60.09;101670.22;5001608;28;20040;-64
2021/08/12 03:37:33;;;;;;;1.15;0.70;;;;;;;18.21;60.26;101676.25;4994364;28;20108;-64
2021/08/12 03:39:59;;;;;;;1.05;0.63;;;;;;;18.18;60.38;101681.16;4994354;28;20034;-64
2021/08/12 03:42:24;;;;;;;0.55;0.50;;;;;;;18.23;59.95;101684.28;4994289;28;20076;-64
2021/08/12 03:44:51;;;;;;;0.50;0.50;;;;;;;18.27;59.74;101685.69;4995718;28;20034;-66
2021/08/12 03:47:18;;;;;;;0.80;0.70;;;;;;;18.22;59.79;101683.41;4994594;28;20045;-66
2021/08/12 03:49:44;;;;;;;0.52;0.50;;;;;;;18.20;60.56;101688.16;4994267;28;20053;-66
2021/08/12 03:52:11;;;;;;;0.60;0.60;;;;;;;18.20;60.53;101685.44;4993942;28;20435;-66
2021/08/12 03:54:39;;;;;;;0.60;0.50;;;;;;;18.21;60.19;101687.16;4994109;28;20026;-66
2021/08/12 03:57:06;;;;;;;0.38;0.38;;;;;;;18.16;60.00;101684.03;4994398;28;20050;-65
2021/08/12 03:59:32;;;;;;;0.52;0.50;;;;;;;18.14;60.52;101691.50;4994656;28;20398;-65
2021/08/12 04:01:58;;;;;;;0.93;0.70;;;;;;;18.69;59.00;101683.34;4994997;28;20065;-65
2021/08/12 04:04:24;;;;;;;0.52;0.45;;;;;;;19.44;57.42;101676.56;4977850;28;20133;-66
2021/08/12 04:06:51;;;;;;;0.80;0.55;;;;;;;19.80;56.06;101658.25;4995377;28;20073;-69
2021/08/12 04:09:16;;;;;;;0.57;0.40;;;;;;;19.99;56.04;101668.09;4996346;28;20030;-70
2021/08/12 04:11:44;;;;;;;0.47;0.40;;;;;;;20.12;56.01;101668.47;5050969;28;20033;-70
2021/08/12 04:14:11;;;;;;;0.60;0.50;;;;;;;20.31;56.47;101667.38;5075316;28;20120;-70
2021/08/12 04:16:36;;;;;;;0.47;0.40;;;;;;;20.37;55.17;101665.88;5076588;28;20021;-70
2021/08/12 04:19:05;;;;;;;0.60;0.38;;;;;;;20.45;55.98;101671.38;5074864;28;20040;-70
2021/08/12 04:21:31;;;;;;;0.43;0.43;;;;;;;20.51;56.10;101669.91;5075107;28;20046;-70
2021/08/12 04:23:57;;;;;;;0.50;0.43;;;;;;;20.50;56.70;101679.13;5074766;28;20025;-70
2021/08/12 04:26:27;;;;;;;0.30;0.30;;;;;;;20.50;56.95;101682.69;5073704;28;20052;-70
2021/08/12 04:28:55;;;;;;;0.60;0.60;;;;;;;20.53;56.83;101685.09;5074796;28;20396;-70
2021/08/12 04:31:22;;;;;;;0.30;0.20;;;;;;;20.56;56.94;101684.75;5078639;28;20392;-69
2021/08/12 04:33:49;;;;;;;0.40;0.40;;;;;;;20.60;57.39;101688.00;5073519;28;20024;-68
2021/08/12 04:36:31;;;;;;;0.70;0.40;;;;;;;20.58;58.39;101682.72;5074805;28;20024;-67
2021/08/12 04:38:58;;;;;;;0.50;0.43;;;;;;;20.69;57.45;101687.88;5079899;28;20064;-67
2021/08/12 04:41:24;;;;;;;0.40;0.32;;;;;;;20.68;58.53;101688.91;5074602;28;20460;-66
2021/08/12 04:43:50;;;;;;;0.30;0.30;;;;;;;20.68;57.90;101696.25;5074572;28;20052;-67
2021/08/12 04:46:20;;;;;;;0.38;0.35;;;;;;;20.70;58.22;101705.13;5075908;28;20021;-67
2021/08/12 04:48:51;;;;;;;0.32;0.30;;;;;;;20.69;58.83;101701.53;5074608;28;20480;-67
2021/08/12 04:51:17;;;;;;;0.40;0.30;;;;;;;20.72;58.92;101712.13;5073433;28;20032;-67
2021/08/12 04:53:43;;;;;;;0.30;0.28;;;;;;;20.80;58.85;101705.81;5074880;28;20036;-68
2021/08/12 04:56:08;;;;;;;0.30;0.30;;;;;;;20.83;58.82;101705.50;5074212;28;20043;-67
2021/08/12 04:58:34;;;;;;;0.45;0.38;;;;;;;20.81;58.89;101710.25;5074477;28;20033;-67
2021/08/12 05:01:00;;;;;;;0.40;0.30;;;;;;;20.80;59.24;101708.56;5074068;28;20020;-67
2021/08/12 05:03:25;;;;;;;0.40;0.30;;;;;;;20.81;59.56;101706.66;5074801;28;20381;-68
2021/08/12 05:06:14;;;;;;;0.38;0.38;;;;;;;20.80;58.96;101708.56;5075098;28;20016;-66
2021/08/12 05:08:39;;;;;;;0.30;0.30;;;;;;;20.87;59.49;101700.56;5076246;28;20032;-66
2021/08/12 05:11:10;;;;;;;0.30;0.30;;;;;;;20.84;59.83;101690.81;5074194;28;20031;-66
2021/08/12 05:13:36;;;;;;;1.75;0.40;;;;;;;20.88;60.71;101694.06;5074199;28;20032;-70
2021/08/12 05:16:02;;;;;;;0.25;0.25;;;;;;;20.91;59.07;101691.84;5072842;28;20023;-70
2021/08/12 05:18:28;;;;;;;0.25;0.25;;;;;;;20.87;59.10;101686.91;5072932;28;20499;-70
2021/08/12 05:20:54;;;;;;;0.43;0.40;;;;;;;20.89;59.70;101693.03;5073555;28;20028;-71
2021/08/12 05:23:20;;;;;;;0.32;0.22;;;;;;;20.90;59.58;101681.09;5075865;28;20579;-70
2021/08/12 05:25:45;;;;;;;0.20;0.20;;;;;;;20.87;59.44;101675.97;5073851;28;20024;-71
2021/08/12 05:28:12;;;;;;;0.28;0.22;;;;;;;20.87;58.71;101681.44;5072778;28;20024;-70
2021/08/12 05:30:38;;;;;;;0.10;0.10;;;;;;;20.85;60.43;101672.53;5073770;28;20492;-70
2021/08/12 05:33:06;;;;;;;0.50;0.30;;;;;;;20.87;60.43;101682.28;5073722;28;20036;-70
2021/08/12 05:35:32;;;;;;;0.30;0.30;;;;;;;20.86;59.80;101690.66;5072497;28;20066;-69
2021/08/12 05:37:57;;;;;;;0.40;0.30;;;;;;;20.90;60.84;101690.13;5081983;28;20029;-69
2021/08/12 05:40:24;;;;;;;0.17;0.17;;;;;;;20.94;61.41;101687.91;5073895;28;20031;-69
2021/08/12 05:42:58;;;;;;;0.43;0.30;;;;;;;20.90;60.84;101697.50;5073605;28;20398;-68
2021/08/12 05:45:23;;;;;;;;;;;;;;;20.65;59.24;101697.41;5074090;28;20020;-68
2021/08/12 05:47:49;;;;;;;0.25;0.25;;;;;;;20.52;60.09;101699.78;5073543;28;19920;-69
2021/08/12 05:50:23;;;;;;;0.20;0.20;;;;;;;20.43;59.17;101706.22;5073682;28;20024;-69
2021/08/12 05:52:48;;;;;;;0.20;0.17;;;;;;;20.39;60.01;101704.81;5073323;28;20029;-69
2021/08/12 05:55:14;;;;;;;0.10;0.10;;;;;;;20.34;59.48;101699.00;5073275;28;20384;-69
2021/08/12 05:57:39;;;;;;;0.28;0.20;;;;;;;20.29;58.87;101693.13;5072510;28;20473;-69
2021/08/12 06:00:05;;;;;;;0.30;0.13;;;;;;;20.28;59.32;101702.34;5070418;28;20025;-68
2021/08/12 06:02:32;;;;;;;0.30;0.13;;;;;;;20.16;58.55;101695.50;5061701;28;20477;-68
2021/08/12 06:04:57;;;;;;;0.20;0.10;;;;;;;20.13;58.07;101694.75;5055411;28;20043;-69
2021/08/12 06:07:24;;;;;;;0.20;0.20;;;;;;;20.15;58.80;101702.78;5054409;28;20024;-68
2021/08/12 06:09:49;;;;;;;0.17;0.17;;;;;;;20.17;57.71;101706.25;5059459;28;20040;-67
2021/08/12 06:12:15;;;;;;;0.20;0.20;;;;;;;20.16;59.48;101703.69;5063707;28;20469;-68
2021/08/12 06:14:43;;;;;;;0.10;0.10;;;;;;;20.08;58.03;101705.31;5058102;28;20025;-71
2021/08/12 06:17:10;;;;;;;0.20;0.20;;;;;;;20.12;58.42;101708.59;5072436;28;20016;-72
2021/08/12 06:19:36;;;;;;;0.10;0.10;;;;;;;20.09;58.50;101704.31;5073342;28;20024;-72
2021/08/12 06:22:02;;;;;;;0.10;0.10;;;;;;;20.11;57.97;101699.53;5064978;28;20096;-72
2021/08/12 06:24:30;;;;;;;0.00;0.00;;;;;;;20.05;58.46;101685.69;5073046;28;20103;-71
2021/08/12 06:26:57;;;;;;;0.10;0.10;;;;;;;19.99;57.99;101692.66;5065238;28;20095;-71
2021/08/12 06:29:23;;;;;;;0.15;0.15;;;;;;;20.01;58.86;101690.63;5059662;28;20066;-72
2021/08/12 06:31:48;;;;;;;0.03;0.03;;;;;;;19.98;58.28;101685.47;5062458;28;20028;-72
2021/08/12 06:34:14;;;;;;;0.10;0.00;;;;;;;19.96;58.40;101687.50;5080537;28;20028;-71
2021/08/12 06:36:39;;;;;;;0.05;0.05;;;;;;;19.99;57.63;101687.22;5080231;28;20115;-71
2021/08/12 06:39:04;;;;;;;0.43;0.43;;;;;;;19.97;58.14;101697.41;5076889;28;20496;-71
2021/08/12 06:41:30;;;;;;;0.00;0.00;;;;;;;19.98;59.31;101690.94;5076713;28;20024;-71
2021/08/12 06:43:57;;;;;;;0.20;0.20;;;;;;;19.97;58.64;101694.69;5075138;28;20515;-71
2021/08/12 06:46:23;;;;;;;0.63;0.20;;;;;;;19.96;57.57;101692.97;5075484;28;20469;-71
2021/08/12 06:48:49;;;;;;;0.00;0.00;;;;;;;19.94;59.35;101696.88;5075085;28;20477;-71
2021/08/12 06:51:14;;;;;;;0.10;0.10;;;;;;;19.95;57.90;101702.16;5077003;28;20032;-70
2021/08/12 06:53:39;;;;;;;0.08;0.08;;;;;;;19.98;58.70;101690.06;5076300;28;20099;-69
2021/08/12 06:56:05;;;;;;;0.03;0.03;;;;;;;20.01;59.33;101696.09;5075768;28;20101;-71
2021/08/12 06:58:30;;;;;;;0.10;0.10;;;;;;;19.92;57.62;101697.03;5074283;28;20497;-73
2021/08/12 07:00:56;;;;;;;0.00;0.00;;;;;;;19.91;58.76;101684.41;5075594;28;20021;-71
2021/08/12 07:03:21;;;;;;;0.20;0.10;;;;;;;19.99;58.08;101697.28;5073518;28;20020;-71
2021/08/12 07:05:57;;;;;;;0.10;0.00;;;;;;;19.96;57.24;101697.56;5069488;28;20031;-73
2021/08/12 07:08:32;;;;;;;0.10;0.10;;;;;;;19.95;58.44;101690.41;5068976;28;20043;-72
2021/08/12 07:11:03;;;;;;;0.20;0.13;;;;;;;19.93;57.91;101696.03;5075084;28;20459;-72
2021/08/12 07:13:30;;;;;;;0.20;0.20;;;;;;;19.97;59.41;101705.59;5075393;28;20033;-71
2021/08/12 07:15:55;;;;;;;0.10;0.10;;;;;;;19.94;58.44;101703.19;5058437;28;20028;-72
2021/08/12 07:18:20;;;;;;;0.10;0.10;;;;;;;19.97;59.09;101708.31;5075766;28;20472;-71
2021/08/12 07:20:48;;;;;;;0.30;0.10;;;;;;;19.96;58.50;101720.25;5075498;28;20030;-70
2021/08/12 07:23:13;;;;;;;0.10;0.10;;;;;;;19.96;58.65;101722.13;5075059;28;20020;-70
2021/08/12 07:25:38;;;;;;;0.17;0.13;;;;;;;19.96;58.59;101714.78;5073192;28;20021;-69
2021/08/12 07:28:04;;;;;;;0.20;0.20;;;;;;;19.91;58.72;101714.44;5075055;28;20477;-70
2021/08/12 07:30:29;;;;;;;0.20;0.20;;;;;;;19.94;57.74;101711.38;5074207;28;20380;-70
2021/08/12 07:32:55;;;;;;;0.17;0.10;;;;;;;19.94;59.38;101715.97;5075198;28;20017;-70
2021/08/12 07:35:22;;;;;;;0.30;0.30;;;;;;;19.92;58.66;101716.16;5074137;28;20453;-74
2021/08/12 07:37:48;;;;;;;0.20;0.10;;;;;;;19.93;58.01;101703.34;5066080;28;20044;-72
2021/08/12 07:40:13;;;;;;;0.55;0.10;;;;;;;19.99;57.63;101702.72;5055431;28;20024;-71
2021/08/12 07:42:39;;;;;;;0.00;0.00;;;;;;;19.97;58.49;101710.19;5059966;28;20032;-72
2021/08/12 07:45:05;;;;;;;0.00;0.00;;;;;;;19.95;59.94;101713.09;5055383;28;20024;-72
2021/08/12 07:47:32;;;;;;;0.10;0.10;;;;;;;19.96;59.35;101712.06;5055725;28;20389;-72
2021/08/12 07:49:58;;;;;;;0.00;0.00;;;;;;;19.89;59.02;101713.75;5056552;28;20633;-72
2021/08/12 07:52:23;;;;;;;0.10;0.10;;;;;;;19.90;58.22;101710.00;5055295;28;20090;-72
2021/08/12 07:54:50;;;;;;;0.00;0.00;;;;;;;19.88;59.52;101717.50;5065883;28;20020;-71
2021/08/12 07:57:16;;;;;;;0.10;0.10;;;;;;;19.90;59.20;101712.72;5073701;28;20028;-71
2021/08/12 07:59:43;;;;;;;0.10;0.10;;;;;;;19.91;59.02;101711.72;5075098;28;20103;-70
2021/08/12 08:02:09;;;;;;;0.10;0.03;;;;;;;19.88;58.69;101706.56;5075202;28;20154;-70
2021/08/12 08:04:35;;;;;;;0.00;0.00;;;;;;;19.87;57.78;101710.31;5070167;28;20472;-70
2021/08/12 08:07:01;;;;;;;0.00;0.00;;;;;;;19.87;58.02;101715.78;5075040;28;20377;-70
2021/08/12 08:09:26;;;;;;;0.10;0.10;;;;;;;19.89;57.97;101710.16;5067216;28;20029;-69
2021/08/12 08:11:52;;;;;;;0.10;0.10;;;;;;;19.92;58.12;101718.88;5067682;28;20032;-69
2021/08/12 08:14:19;;;;;;;0.10;0.10;;;;;;;19.87;59.00;101710.31;5069908;28;20111;-72
2021/08/12 08:16:46;;;;;;;0.10;0.10;;;;;;;19.87;59.05;101710.31;5075533;28;20469;-72
2021/08/12 08:19:11;;;;;;;0.28;0.28;;;;;;;19.88;58.40;101706.56;5071156;28;20029;-72
2021/08/12 08:21:39;;;;;;;0.10;0.10;;;;;;;19.90;59.16;101720.91;5068087;28;20484;-70
2021/08/12 08:24:09;;;;;;;0.10;0.10;;;;;;;19.89;59.56;101713.75;5064849;28;20024;-71
2021/08/12 08:26:34;;;;;;;0.20;0.20;;;;;;;19.92;59.13;101713.41;5069007;28;20445;-71
2021/08/12 08:29:01;;;;;;;0.20;0.17;;;;;;;19.93;58.45;101708.81;5072979;28;20029;-70
2021/08/12 08:31:26;;;;;;;0.30;0.22;;;;;;;19.92;59.93;101716.16;5059382;28;20103;-70
2021/08/12 08:33:51;;;;;;;0.20;0.20;;;;;;;19.91;58.75;101714.44;5059652;28;20496;-69
2021/08/12 08:36:17;;;;;;;0.13;0.13;;;;;;;19.92;57.71;101716.16;5069331;28;20016;-70
2021/08/12 08:38:42;;;;;;;0.30;0.20;;;;;;;19.91;59.35;101728.09;5070674;28;20028;-69
2021/08/12 08:41:08;;;;;;;0.40;0.20;;;;;;;19.96;59.48;101719.41;5073707;28;20020;-69
2021/08/12 08:43:34;;;;;;;0.13;0.13;;;;;;;19.90;58.53;101720.91;5073307;28;20029;-68
2021/08/12 08:46:02;;;;;;;0.20;0.20;;;;;;;19.93;58.98;101726.03;5067780;28;20021;-68
2021/08/12 08:48:31;;;;;;;0.20;0.10;;;;;;;19.93;58.83;101693.28;5073848;28;20103;-71
2021/08/12 08:50:58;;;;;;;0.40;0.20;;;;;;;19.92;59.23;101702.50;5071438;28;20111;-71
2021/08/12 08:53:24;;;;;;;0.30;0.20;;;;;;;19.88;58.71;101705.72;5062159;28;20028;-70
2021/08/12 08:55:51;;;;;;;0.50;0.25;;;;;;;19.87;59.07;101693.94;5068289;28;20050;-71
2021/08/12 08:58:18;;;;;;;0.22;0.10;;;;;;;19.96;58.83;101701.16;5073731;28;20025;-70
2021/08/12 09:00:44;;;;;;;0.20;0.20;;;;;;;19.97;59.04;101699.28;5073552;28;20420;-69
2021/08/12 09:03:09;;;;;;;0.10;0.10;;;;;;;19.88;58.28;101701.13;5055219;28;20025;-68
2021/08/12 09:05:35;;;;;;;0.10;0.10;;;;;;;19.90;59.71;101701.81;5063236;28;20434;-68
2021/08/12 09:08:01;;;;;;;0.00;0.00;;;;;;;19.96;59.20;101709.34;5073307;28;20035;-68
2021/08/12 09:10:26;;;;;;;0.20;0.20;;;;;;;19.90;58.56;101699.09;5073676;28;20059;-68
2021/08/12 09:12:52;;;;;;;0.10;0.10;;;;;;;19.90;59.36;101704.53;5067499;28;20290;-67
2021/08/12 09:15:21;;;;;;;0.10;0.10;;;;;;;19.93;58.84;101708.81;5060694;28;20480;-67
2021/08/12 09:17:51;;;;;;;0.15;0.15;;;;;;;19.95;57.55;101713.09;5065891;28;20040;-71
2021/08/12 09:20:18;;;;;;;0.08;0.08;;;;;;;19.93;59.65;101709.66;5064885;28;20074;-70
2021/08/12 09:22:57;;;;;;;0.65;0.35;;;;;;;19.91;58.78;101728.09;5069767;28;20029;-71
2021/08/12 09:25:42;;;;;;;0.00;0.00;;;;;;;19.98;59.05;101723.69;5064459;28;20017;-71
2021/08/12 09:28:21;;;;;;;3.05;0.55;;;;;;;20.31;59.36;101729.31;5068123;28;20028;-71
2021/08/12 09:30:49;;;;;;;0.10;0.10;;;;;;;20.49;60.21;101735.63;5071840;28;20119;-67
2021/08/12 09:33:17;;;;;;;0.47;0.05;;;;;;;20.57;60.14;101735.63;5073520;28;20024;-66
2021/08/12 09:35:43;;;;;;;0.30;0.20;;;;;;;20.65;58.74;101732.91;5062852;28;20038;-68
2021/08/12 09:38:13;;;;;;;0.80;0.20;;;;;;;20.39;59.26;101726.66;5072199;28;20428;-70
2021/08/12 09:40:40;;;;;;;0.20;0.20;;;;;;;20.32;60.01;101725.56;5061125;28;20120;-71
2021/08/12 09:43:07;;;;;;;0.17;0.10;;;;;;;20.23;59.84;101726.56;5061163;28;20073;-70
2021/08/12 09:45:35;;;;;;;0.65;0.10;;;;;;;20.19;59.52;101719.72;5064268;28;20017;-70
2021/08/12 09:48:20;;;;;;;0.10;0.03;;;;;;;20.18;59.11;101723.47;5053027;28;20029;-70
2021/08/12 09:51:06;;;;;;;0.22;0.10;;;;;;;20.13;59.55;101711.16;5053622;28;20412;-69
2021/08/12 09:53:33;;;;;;;0.35;0.05;;;;;;;20.12;58.63;101714.03;5063305;28;20101;-70
2021/08/12 09:56:07;;;;;;;0.10;0.10;;;;;;;20.08;57.70;101713.50;5056216;28;20516;-68
2021/08/12 09:58:37;;;;;;;0.10;0.10;;;;;;;20.07;58.31;101716.41;5059907;28;20059;-65
2021/08/12 10:01:18;;;;;;;0.30;0.10;;;;;;;20.04;59.07;101711.28;5067621;28;20044;-65
2021/08/12 10:03:45;;;;;;;0.00;0.00;;;;;;;20.03;58.72;101710.44;5074134;28;20029;-65
2021/08/12 10:06:27;;;;;;;0.10;0.10;;;;;;;20.05;59.44;101713.84;5073262;28;20082;-66
2021/08/12 10:08:52;;;;;;;0.10;0.10;;;;;;;20.06;58.44;101721.00;5077138;28;20032;-66
2021/08/12 10:11:30;;;;;;;0.10;0.10;;;;;;;19.99;57.54;101713.66;5065628;28;20043;-67
2021/08/12 10:13:58;;;;;;;0.10;0.08;;;;;;;20.03;57.50;101718.63;5067471;28;20023;-66
2021/08/12 10:16:26;;;;;;;0.63;0.10;;;;;;;20.04;57.97;101712.13;5075790;28;20416;-66
2021/08/12 10:18:54;;;;;;;0.10;0.10;;;;;;;19.97;58.51;101721.97;5076408;28;20461;-66
2021/08/12 10:21:19;;;;;;;0.03;0.03;;;;;;;20.06;59.82;101721.00;5067790;28;20103;-66
2021/08/12 10:23:48;;;;;;;0.10;0.10;;;;;;;20.01;58.07;101717.91;5076741;28;20089;-66
2021/08/12 10:26:25;;;;;;;0.00;0.00;;;;;;;20.04;58.58;101720.31;5068185;28;20071;-66
2021/08/12 10:28:55;;;;;;;0.00;0.00;;;;;;;20.04;58.29;101723.06;5056961;28;20029;-66
2021/08/12 10:31:25;;;;;;;0.00;0.00;;;;;;;20.04;58.40;101725.78;5055898;28;20021;-67
2021/08/12 10:33:52;;;;;;;0.10;0.10;;;;;;;19.98;57.48;101736.47;5057445;28;20021;-67
2021/08/12 10:36:18;;;;;;;0.20;0.20;;;;;;;19.94;59.05;101724.16;5056826;28;20031;-67
2021/08/12 10:38:45;;;;;;;0.03;0.03;;;;;;;19.98;58.97;101736.47;5056648;28;20033;-67
2021/08/12 10:41:16;;;;;;;0.08;0.08;;;;;;;20.02;59.12;101719.63;5057881;28;20021;-67
2021/08/12 10:43:42;;;;;;;0.00;0.00;;;;;;;20.00;58.72;101726.28;5055435;28;20068;-69
2021/08/12 10:46:07;;;;;;;0.00;0.00;;;;;;;19.99;58.85;101733.59;5067654;28;20466;-66
2021/08/12 10:48:32;;;;;;;0.10;0.10;;;;;;;19.99;58.59;101725.41;5076634;28;20078;-67
2021/08/12 10:51:13;;;;;;;0.00;0.00;;;;;;;20.00;58.70;101738.06;5075864;28;20028;-66
2021/08/12 10:53:44;;;;;;;0.10;0.10;;;;;;;20.04;58.00;101735.84;5080226;28;20024;-66
2021/08/12 10:56:19;;;;;;;0.00;0.00;;;;;;;19.97;58.86;101738.34;5076433;28;20055;-66
2021/08/12 10:58:47;;;;;;;0.00;0.00;;;;;;;19.99;58.58;101736.34;5076333;28;20032;-67
2021/08/12 11:01:25;;;;;;;0.00;0.00;;;;;;;19.98;58.97;101733.75;5075577;28;20066;-67
2021/08/12 11:03:53;;;;;;;0.05;0.05;;;;;;;19.95;60.08;101726.72;5076384;28;20389;-67
2021/08/12 11:06:44;;;;;;;0.00;0.00;;;;;;;19.97;56.77;101727.44;5077769;28;20016;-67
2021/08/12 11:09:12;;;;;;;0.00;0.00;;;;;;;20.04;58.55;101733.13;5076024;28;20024;-67
2021/08/12 11:11:37;;;;;;;0.00;0.00;;;;;;;19.96;58.89;101724.84;5076340;28;20066;-67
2021/08/12 11:14:07;;;;;;;0.00;0.00;;;;;;;19.97;58.90;101716.50;5076321;28;20024;-67
2021/08/12 11:16:42;;;;;;;0.00;0.00;;;;;;;19.94;58.27;101726.91;5071768;28;20028;-67
2021/08/12 11:19:08;;;;;;;;;;;;;;;19.88;58.38;101717.50;5055906;28;20057;-66
2021/08/12 11:21:38;;;;;;;0.10;0.10;;;;;;;19.97;58.86;101716.50;5056291;28;19912;-65
2021/08/12 11:24:31;;;;;;;0.10;0.10;;;;;;;19.96;58.49;101709.34;5055809;28;20104;-67
2021/08/12 11:27:00;;;;;;;0.00;0.00;;;;;;;19.97;58.87;101721.97;5061795;28;20413;-66
2021/08/12 11:29:28;;;;;;;0.10;0.10;;;;;;;19.96;58.93;101705.75;5061861;28;20038;-66
2021/08/12 11:32:14;;;;;;;0.10;0.10;;;;;;;19.98;58.27;101701.00;5075858;28;20028;-67
2021/08/12 11:34:51;;;;;;;0.00;0.00;;;;;;;19.97;58.78;101702.00;5056275;28;20032;-67
2021/08/12 11:37:17;;;;;;;0.10;0.10;;;;;;;19.91;58.55;101703.53;5073231;28;20502;-66
2021/08/12 11:39:56;;;;;;;0.05;0.00;;;;;;;19.93;58.38;101693.28;5075535;28;20037;-67
2021/08/12 11:42:28;;;;;;;0.10;0.10;;;;;;;19.95;59.04;101680.34;5078066;28;20089;-67